Lake Station, IN

1:49 PM CDT on May 25, 2015 (GMT -0500)
Chicago Lansing | | Change Station
CLOSE
Current Station
Airport
Location: Chicago Lansing,
Elevation: 617 ft
Nearby Weather Stations

Elev 617 ft 41.54 °N, 87.53 °W | Updated 14 minutes ago

Mostly Cloudy
Mostly Cloudy
74 °F
Feels Like 74 °F
N
23
Wind Variable Wind from WSW
Gusts 28 mph

Today
High -- | Low -- °F
--% Chance of Precip.
Yesterday
High -- | Low -- °F
Precip. -- in
5:21 AM 8:10 PM
Waxing Crescent, 51% visible
Pressure 29.93 in
Visibility 10.0 miles
Clouds Scattered Clouds 3400 ft
Scattered Clouds 4500 ft
Mostly Cloudy 5000 ft
Dew Point 62 °F
Humidity 65%
Rainfall 0.10 in
Snow Depth Not available.
UV 6 out of 12
Pollen 6.70 out of 12
Air Quality Not available.
Flu Activity Sporadic
METAR KIGQ 251835Z AUTO 24020G24KT 10SM SCT034 SCT045 BKN050 23/17 A2993 RMK AO2 T02340166

More Conditions Fewer Conditions

Pressure 29.93 in
Visibility 10.0 miles
Clouds Scattered Clouds 3400 ft
Scattered Clouds 4500 ft
Mostly Cloudy 5000 ft
Dew Point 62 °F
Humidity 65%
Rainfall 0.10 in
Snow Depth Not available.
UV 6 out of 12
Pollen 6.70 out of 12
Air Quality Not available.
Flu Activity Sporadic
METAR KIGQ 251835Z AUTO 24020G24KT 10SM SCT034 SCT045 BKN050 23/17 A2993 RMK AO2 T02340166

More Conditions Fewer Conditions

10-Day Weather Forecast

Almanac

Astronomy

May. 25, 2015 Rise Set
Actual Time
Civil Twilight
Nautical Twilight
Astronomical Twilight
Moon
Length of Visible Light
Length of Day
Tomorrow will be .
, % of the Moon is Illuminated

Today's Extremes

State Highs State Lows

Community

WunderPhotos

Upload Photos

1,824,080 photos uploaded!

WunderBlogs® & News

Nearby

Air Quality

  Air Quality AQ Index Pollutant
Not available.

Snow Depth

Station Depth Elevation

Earthquake Activity

City Distance Mag. Time & Date
Minimum magnitude displayed is 2.5.

Coastal Water Temperatures

Place Temperature

Stations

Nearby Weather Stations

Station Location Temp. Windchill Dew Point Humidity Wind Precip. Elev Updated Type